createdAt,value
2022-09-07T04:19:57.201Z,24.30
2022-09-07T04:23:00.277Z,23.42
2022-09-07T04:26:02.851Z,21.02
2022-09-07T04:29:06.887Z,21.10
2022-09-07T04:32:15.698Z,17.52
2022-09-07T04:35:19.045Z,19.62
2022-09-07T04:38:21.786Z,19.08
2022-09-07T04:41:24.568Z,16.15
2022-09-07T04:44:27.229Z,15.43
2022-09-07T04:47:32.873Z,17.73
2022-09-07T04:50:35.506Z,14.80
2022-09-07T04:53:38.597Z,14.50
2022-09-07T04:56:41.043Z,14.55
2022-09-07T04:59:44.065Z,14.30
2022-09-07T05:02:46.614Z,16.83
2022-09-07T05:05:49.512Z,15.68
2022-09-07T05:08:53.741Z,13.77
2022-09-07T05:11:56.606Z,13.98
2022-09-07T05:14:59.067Z,14.02
2022-09-07T05:18:01.921Z,14.32
2022-09-07T05:21:16.066Z,13.10
2022-09-07T05:24:18.978Z,11.93
2022-09-07T05:27:24.194Z,14.50
2022-09-07T05:37:14.652Z,12.27
2022-09-07T05:40:17.765Z,12.60
2022-09-07T05:43:22.832Z,11.40
2022-09-07T05:46:27.966Z,13.25
2022-09-07T05:49:30.889Z,15.48
2022-09-07T05:52:34.024Z,10.73
2022-09-07T05:55:36.801Z,14.18
2022-09-07T05:58:41.852Z,13.75
2022-09-07T06:01:47.505Z,10.63
2022-09-07T06:04:50.884Z,11.52
2022-09-07T06:07:53.506Z,10.43
2022-09-07T06:10:58.491Z,10.23
2022-09-07T06:14:01.110Z,11.07
2022-09-07T06:17:04.191Z,13.25
2022-09-07T06:20:07.619Z,10.48
2022-09-07T06:23:14.005Z,10.20
2022-09-07T06:26:17.855Z,9.52
2022-09-07T06:29:20.738Z,12.25
2022-09-07T06:35:58.753Z,9.40
2022-09-07T06:39:01.780Z,9.75
2022-09-07T06:42:04.584Z,9.18
2022-09-07T06:45:07.583Z,10.15
2022-09-07T06:48:10.363Z,8.73
2022-09-07T06:51:19.104Z,9.80
2022-09-07T06:57:44.447Z,9.15
2022-09-07T07:00:47.762Z,11.00
2022-09-07T07:03:51.593Z,10.27
2022-09-07T07:06:54.493Z,28.73
2022-09-07T07:09:57.180Z,10.93
2022-09-07T07:13:00.082Z,9.38
2022-09-07T07:16:09.884Z,11.32
2022-09-07T07:19:12.932Z,9.23
2022-09-07T07:25:38.422Z,13.95
2022-09-07T07:29:04.758Z,9.02
2022-09-07T07:32:07.661Z,9.98
2022-09-07T07:35:14.284Z,14.02
2022-09-07T07:42:12.338Z,8.75
2022-09-07T07:48:38.025Z,7.90
2022-09-07T07:58:47.391Z,8.93
2022-09-07T08:01:50.186Z,12.80
2022-09-07T08:04:53.072Z,9.93
2022-09-07T08:23:19.435Z,9.55
2022-09-07T08:27:02.415Z,7.62
2022-09-07T09:16:43.060Z,6.68
2022-09-07T09:27:11.081Z,5.97
2022-09-07T09:30:35.083Z,10.20
2022-09-07T09:37:45.443Z,7.40
2022-09-07T09:40:58.170Z,6.57
2022-09-07T09:44:00.715Z,6.75
2022-09-07T09:54:42.094Z,6.57
2022-09-07T10:09:02.269Z,11.20
2022-09-07T10:16:03.770Z,7.47
2022-09-07T10:19:21.229Z,8.75
2022-09-07T10:22:35.708Z,10.00
2022-09-07T10:25:50.653Z,7.37
2022-09-07T10:29:19.802Z,7.15
2022-09-07T10:32:35.949Z,7.18
2022-09-07T10:35:56.963Z,6.65
2022-09-07T10:39:18.300Z,6.95
2022-09-07T10:42:38.959Z,6.47
2022-09-07T10:45:53.723Z,6.00
2022-09-07T10:48:59.264Z,6.82
2022-09-07T11:07:15.658Z,7.37
2022-09-07T11:10:37.450Z,9.18
2022-09-07T11:14:08.977Z,7.20
2022-09-07T11:56:11.660Z,11.25
2022-09-07T12:03:25.366Z,11.12
2022-09-07T12:06:53.387Z,10.95
2022-09-07T12:10:26.063Z,12.30
2022-09-07T12:14:02.861Z,11.43
2022-09-07T12:17:37.985Z,13.68
2022-09-07T12:21:03.448Z,13.40
2022-09-07T12:24:26.123Z,13.07
2022-09-07T12:27:28.810Z,15.02
2022-09-07T12:30:40.249Z,14.77
2022-09-07T12:33:43.773Z,15.65
2022-09-07T12:36:49.821Z,16.27
2022-09-07T12:40:29.801Z,17.48
2022-09-07T12:43:46.710Z,18.37
2022-09-07T12:50:37.056Z,17.70
2022-09-07T12:54:00.830Z,16.95
2022-09-07T12:57:29.814Z,17.42
2022-09-07T13:04:35.821Z,18.92
2022-09-07T13:11:33.000Z,19.30
2022-09-07T13:14:58.402Z,19.33
2022-09-07T13:18:02.631Z,19.17
2022-09-07T13:21:08.154Z,18.55
2022-09-07T13:28:17.695Z,19.30
2022-09-07T13:32:05.059Z,19.12
2022-09-07T13:35:24.961Z,17.95
2022-09-07T13:38:29.079Z,18.45
2022-09-07T13:41:42.455Z,18.27
2022-09-07T13:44:54.414Z,16.25
2022-09-07T13:48:14.584Z,16.52
2022-09-07T13:51:50.309Z,16.75
2022-09-07T13:55:25.634Z,15.80
2022-09-07T13:58:37.937Z,15.40
2022-09-07T14:01:46.443Z,15.65
2022-09-07T14:23:41.624Z,15.80
2022-09-07T14:26:48.875Z,14.55
2022-09-07T14:29:52.059Z,13.82
2022-09-07T14:33:04.696Z,14.60
2022-09-07T14:36:29.543Z,14.25
2022-09-07T14:39:38.080Z,14.85
